Niagara Airport

*Note: All times are displayed in the local standard time of the station location.
**Rain - Equipment is designed to accurately record liquid precipitation; under conditions when precipitation is not in liquid form, the data displayed may not properly reflect rainfall values.

Date Max Temp
(°C)
Min Temp
(°C)
Avg Temp
(°C)
Rain (mm) Avg RH (%)
Mon, Apr 23, 2018 18.8 -0.1 9.6 0.0 51.3
Sun, Apr 22, 2018 16.6 -1.6 8.3 0.0 47.0
Sat, Apr 21, 2018 14.2 -2.6 6.0 0.0 52.6
Fri, Apr 20, 2018 8.3 -1.1 2.9 0.0 58.8
Thu, Apr 19, 2018 4.2 0.7 2.2 0.0 67.7
Wed, Apr 18, 2018 4.2 0.8 2.3 0.0 75.4
Tue, Apr 17, 2018 1.7 -0.6 0.7 0.4 73.7
DateTime Avg Temp (°C) Rain (mm) RH (%)
Tue, Apr 24, 2018 18:00 13.2 0.8 78.5
Tue, Apr 24, 2018 17:00 14.4 0.0 65.3
Tue, Apr 24, 2018 16:00 14.5 0.0 55.5
Tue, Apr 24, 2018 15:00 14.3 0.0 53.8
Tue, Apr 24, 2018 14:00 18.8 0.0 36.3
Tue, Apr 24, 2018 13:00 18.8 0.0 37.0
Tue, Apr 24, 2018 12:00 16.8 0.0 40.0
Tue, Apr 24, 2018 11:00 15.1 0.0 52.3
Tue, Apr 24, 2018 10:00 14.4 0.0 57.3
Tue, Apr 24, 2018 09:00 13.9 0.0 56.0
Tue, Apr 24, 2018 08:00 12.3 0.0 62.5
Tue, Apr 24, 2018 07:00 10.7 0.0 66.0
Tue, Apr 24, 2018 06:00 10.0 0.0 67.3
Tue, Apr 24, 2018 05:00 7.1 0.0 74.0
Tue, Apr 24, 2018 04:00 4.6 0.0 79.8
Tue, Apr 24, 2018 03:00 5.1 0.0 75.5
Tue, Apr 24, 2018 02:00 5.1 0.0 75.0
Tue, Apr 24, 2018 01:00 5.0 0.0 76.3
Tue, Apr 24, 2018 00:00 5.3 0.0 73.8
Mon, Apr 23, 2018 23:00 5.7 0.0 71.8
Mon, Apr 23, 2018 21:00 7.4 0.0 65.5
Mon, Apr 23, 2018 20:00 11.6 0.0 45.8
Mon, Apr 23, 2018 19:00 15.5 0.0 33.8
Mon, Apr 23, 2018 18:00 17.4 0.0 30.0
Mon, Apr 23, 2018 17:00 18.5 0.0 25.8
Mon, Apr 23, 2018 16:00 18.7 0.0 25.3
Mon, Apr 23, 2018 15:00 17.9 0.0 27.0
Mon, Apr 23, 2018 14:00 16.3 0.0 30.8
Mon, Apr 23, 2018 13:00 16.2 0.0 33.5
Mon, Apr 23, 2018 12:00 18.1 0.0 23.5
Mon, Apr 23, 2018 11:00 16.3 0.0 24.0
Mon, Apr 23, 2018 10:00 13.4 0.0 34.5
Mon, Apr 23, 2018 09:00 9.1 0.0 54.0
Mon, Apr 23, 2018 08:00 4.9 0.0 66.0
Mon, Apr 23, 2018 07:00 0.2 0.0 76.5
Mon, Apr 23, 2018 06:00 1.0 0.0 72.3
Mon, Apr 23, 2018 05:00 1.9 0.0 66.3
Mon, Apr 23, 2018 04:00 1.4 0.0 73.8
Mon, Apr 23, 2018 03:00 1.3 0.0 77.0
Mon, Apr 23, 2018 02:00 2.6 0.0 69.3
Mon, Apr 23, 2018 01:00 3.3 0.0 67.5
Mon, Apr 23, 2018 00:00 4.8 0.0 60.3
Sun, Apr 22, 2018 23:00 7.2 0.0 48.0
Sun, Apr 22, 2018 22:00 8.7 0.0 43.5
Sun, Apr 22, 2018 21:00 11.0 0.0 36.3
Sun, Apr 22, 2018 20:00 14.9 0.0 23.5
Sun, Apr 22, 2018 19:00 16.4 0.0 17.5
Sun, Apr 22, 2018 18:00 16.3 0.0 17.3


asterix Register now to access more data! asterix